sensor_id;sensor_type;location;lat;lon;timestamp;P1;durP1;ratioP1;P2;durP2;ratioP2
36191;SDS011;22233;42.708;23.360;2023-09-07T00:01:44;9.23;;;7.68;;
36191;SDS011;22233;42.708;23.360;2023-09-07T00:04:10;8.40;;;7.60;;
36191;SDS011;22233;42.708;23.360;2023-09-07T00:06:35;10.98;;;7.78;;
36191;SDS011;22233;42.708;23.360;2023-09-07T00:09:02;13.88;;;8.93;;
36191;SDS011;22233;42.708;23.360;2023-09-07T00:11:27;13.57;;;8.67;;
36191;SDS011;22233;42.708;23.360;2023-09-07T00:13:53;9.98;;;8.93;;
36191;SDS011;22233;42.708;23.360;2023-09-07T00:16:18;14.88;;;8.93;;
36191;SDS011;22233;42.708;23.360;2023-09-07T00:18:44;13.38;;;8.88;;
36191;SDS011;22233;42.708;23.360;2023-09-07T00:21:09;10.15;;;9.00;;
36191;SDS011;22233;42.708;23.360;2023-09-07T00:23:34;9.30;;;8.40;;
36191;SDS011;22233;42.708;23.360;2023-09-07T00:26:00;14.55;;;8.48;;
36191;SDS011;22233;42.708;23.360;2023-09-07T00:28:25;9.57;;;8.68;;
36191;SDS011;22233;42.708;23.360;2023-09-07T00:30:51;9.77;;;8.85;;
36191;SDS011;22233;42.708;23.360;2023-09-07T00:33:16;10.95;;;9.75;;
36191;SDS011;22233;42.708;23.360;2023-09-07T00:35:41;10.05;;;9.05;;
36191;SDS011;22233;42.708;23.360;2023-09-07T00:38:07;10.07;;;9.00;;
36191;SDS011;22233;42.708;23.360;2023-09-07T00:40:32;9.95;;;8.73;;
36191;SDS011;22233;42.708;23.360;2023-09-07T00:42:58;10.30;;;8.70;;
36191;SDS011;22233;42.708;23.360;2023-09-07T00:45:24;13.82;;;8.75;;
36191;SDS011;22233;42.708;23.360;2023-09-07T00:47:49;11.07;;;9.43;;
36191;SDS011;22233;42.708;23.360;2023-09-07T00:50:15;12.00;;;8.73;;
36191;SDS011;22233;42.708;23.360;2023-09-07T00:52:44;12.52;;;8.82;;
36191;SDS011;22233;42.708;23.360;2023-09-07T00:55:11;9.93;;;7.72;;
36191;SDS011;22233;42.708;23.360;2023-09-07T00:57:37;10.38;;;9.15;;
36191;SDS011;22233;42.708;23.360;2023-09-07T01:00:04;9.75;;;8.45;;
36191;SDS011;22233;42.708;23.360;2023-09-07T01:02:31;10.60;;;9.30;;
36191;SDS011;22233;42.708;23.360;2023-09-07T01:04:57;9.75;;;8.43;;
36191;SDS011;22233;42.708;23.360;2023-09-07T01:10:10;12.95;;;9.07;;
36191;SDS011;22233;42.708;23.360;2023-09-07T01:12:36;10.43;;;9.43;;
36191;SDS011;22233;42.708;23.360;2023-09-07T01:15:01;12.23;;;8.93;;
36191;SDS011;22233;42.708;23.360;2023-09-07T01:17:27;10.43;;;9.15;;
36191;SDS011;22233;42.708;23.360;2023-09-07T01:19:53;11.05;;;8.93;;
36191;SDS011;22233;42.708;23.360;2023-09-07T01:22:21;10.88;;;9.73;;
36191;SDS011;22233;42.708;23.360;2023-09-07T01:24:50;10.43;;;9.30;;
36191;SDS011;22233;42.708;23.360;2023-09-07T01:27:17;11.23;;;10.05;;
36191;SDS011;22233;42.708;23.360;2023-09-07T01:29:43;10.90;;;8.65;;
36191;SDS011;22233;42.708;23.360;2023-09-07T01:32:09;13.52;;;10.48;;
36191;SDS011;22233;42.708;23.360;2023-09-07T01:34:38;12.50;;;10.50;;
36191;SDS011;22233;42.708;23.360;2023-09-07T01:37:04;11.73;;;10.48;;
36191;SDS011;22233;42.708;23.360;2023-09-07T01:39:29;13.55;;;10.40;;
36191;SDS011;22233;42.708;23.360;2023-09-07T01:41:54;15.60;;;11.15;;
36191;SDS011;22233;42.708;23.360;2023-09-07T01:44:20;11.48;;;10.30;;
36191;SDS011;22233;42.708;23.360;2023-09-07T01:46:45;11.68;;;10.38;;
36191;SDS011;22233;42.708;23.360;2023-09-07T01:49:10;11.93;;;10.10;;
36191;SDS011;22233;42.708;23.360;2023-09-07T01:51:36;13.15;;;11.20;;
36191;SDS011;22233;42.708;23.360;2023-09-07T01:54:01;12.05;;;10.80;;
36191;SDS011;22233;42.708;23.360;2023-09-07T01:56:27;11.98;;;10.77;;
36191;SDS011;22233;42.708;23.360;2023-09-07T01:58:52;13.77;;;10.25;;
36191;SDS011;22233;42.708;23.360;2023-09-07T02:01:21;11.55;;;10.35;;
36191;SDS011;22233;42.708;23.360;2023-09-07T02:03:51;11.00;;;9.75;;
36191;SDS011;22233;42.708;23.360;2023-09-07T02:06:16;10.80;;;9.80;;
36191;SDS011;22233;42.708;23.360;2023-09-07T02:08:42;13.38;;;10.23;;
36191;SDS011;22233;42.708;23.360;2023-09-07T02:11:08;13.65;;;10.32;;
36191;SDS011;22233;42.708;23.360;2023-09-07T02:13:33;11.75;;;10.55;;
36191;SDS011;22233;42.708;23.360;2023-09-07T02:16:02;12.30;;;9.70;;
36191;SDS011;22233;42.708;23.360;2023-09-07T02:18:29;12.15;;;10.57;;
36191;SDS011;22233;42.708;23.360;2023-09-07T02:20:54;12.10;;;10.48;;
36191;SDS011;22233;42.708;23.360;2023-09-07T02:23:26;12.05;;;10.52;;
36191;SDS011;22233;42.708;23.360;2023-09-07T02:25:51;15.98;;;10.90;;
36191;SDS011;22233;42.708;23.360;2023-09-07T02:28:17;12.88;;;10.73;;
36191;SDS011;22233;42.708;23.360;2023-09-07T02:30:42;11.98;;;10.88;;
36191;SDS011;22233;42.708;23.360;2023-09-07T02:33:07;11.63;;;10.48;;
36191;SDS011;22233;42.708;23.360;2023-09-07T02:35:36;13.88;;;10.60;;
36191;SDS011;22233;42.708;23.360;2023-09-07T02:38:02;12.95;;;10.23;;
36191;SDS011;22233;42.708;23.360;2023-09-07T02:40:27;13.68;;;10.73;;
36191;SDS011;22233;42.708;23.360;2023-09-07T02:42:53;12.50;;;10.73;;
36191;SDS011;22233;42.708;23.360;2023-09-07T02:45:18;12.20;;;10.57;;
36191;SDS011;22233;42.708;23.360;2023-09-07T02:47:43;12.27;;;10.80;;
36191;SDS011;22233;42.708;23.360;2023-09-07T02:50:20;14.13;;;11.90;;
36191;SDS011;22233;42.708;23.360;2023-09-07T02:53:14;12.70;;;11.45;;
36191;SDS011;22233;42.708;23.360;2023-09-07T02:55:40;12.65;;;11.43;;
36191;SDS011;22233;42.708;23.360;2023-09-07T02:58:05;15.25;;;11.65;;
36191;SDS011;22233;42.708;23.360;2023-09-07T03:00:31;12.32;;;11.02;;
36191;SDS011;22233;42.708;23.360;2023-09-07T03:02:56;20.52;;;12.25;;
36191;SDS011;22233;42.708;23.360;2023-09-07T03:05:21;13.90;;;10.65;;
36191;SDS011;22233;42.708;23.360;2023-09-07T03:07:47;14.05;;;11.88;;
36191;SDS011;22233;42.708;23.360;2023-09-07T03:10:13;13.18;;;11.20;;
36191;SDS011;22233;42.708;23.360;2023-09-07T03:12:39;13.05;;;11.73;;
36191;SDS011;22233;42.708;23.360;2023-09-07T03:15:04;12.98;;;11.38;;
36191;SDS011;22233;42.708;23.360;2023-09-07T03:17:31;13.40;;;11.27;;
36191;SDS011;22233;42.708;23.360;2023-09-07T03:19:56;13.57;;;11.88;;
36191;SDS011;22233;42.708;23.360;2023-09-07T03:22:24;12.85;;;11.63;;
36191;SDS011;22233;42.708;23.360;2023-09-07T03:24:50;14.43;;;12.95;;
36191;SDS011;22233;42.708;23.360;2023-09-07T03:27:16;18.25;;;15.02;;
36191;SDS011;22233;42.708;23.360;2023-09-07T03:29:41;15.52;;;13.90;;
36191;SDS011;22233;42.708;23.360;2023-09-07T03:32:07;17.13;;;14.10;;
36191;SDS011;22233;42.708;23.360;2023-09-07T03:34:33;16.93;;;15.13;;
36191;SDS011;22233;42.708;23.360;2023-09-07T03:36:59;16.98;;;13.43;;
36191;SDS011;22233;42.708;23.360;2023-09-07T03:39:24;16.05;;;14.02;;
36191;SDS011;22233;42.708;23.360;2023-09-07T03:41:49;16.05;;;13.63;;
36191;SDS011;22233;42.708;23.360;2023-09-07T03:44:15;17.30;;;14.13;;
36191;SDS011;22233;42.708;23.360;2023-09-07T03:46:40;16.48;;;14.32;;
36191;SDS011;22233;42.708;23.360;2023-09-07T03:49:06;17.27;;;14.65;;
36191;SDS011;22233;42.708;23.360;2023-09-07T03:51:32;15.32;;;13.82;;
36191;SDS011;22233;42.708;23.360;2023-09-07T03:53:57;15.77;;;13.75;;
36191;SDS011;22233;42.708;23.360;2023-09-07T03:56:23;16.27;;;13.00;;
36191;SDS011;22233;42.708;23.360;2023-09-07T03:58:48;13.93;;;12.52;;
36191;SDS011;22233;42.708;23.360;2023-09-07T04:01:14;14.65;;;13.18;;
36191;SDS011;22233;42.708;23.360;2023-09-07T04:03:39;15.05;;;13.15;;
36191;SDS011;22233;42.708;23.360;2023-09-07T04:06:07;14.07;;;12.27;;
36191;SDS011;22233;42.708;23.360;2023-09-07T04:08:33;19.42;;;12.98;;
36191;SDS011;22233;42.708;23.360;2023-09-07T04:11:02;15.95;;;13.23;;
36191;SDS011;22233;42.708;23.360;2023-09-07T04:13:29;14.43;;;12.90;;
36191;SDS011;22233;42.708;23.360;2023-09-07T04:15:54;13.95;;;12.55;;
36191;SDS011;22233;42.708;23.360;2023-09-07T04:18:19;15.65;;;13.95;;
36191;SDS011;22233;42.708;23.360;2023-09-07T04:20:45;15.10;;;13.23;;
36191;SDS011;22233;42.708;23.360;2023-09-07T04:23:10;14.50;;;12.98;;
36191;SDS011;22233;42.708;23.360;2023-09-07T04:25:35;14.77;;;13.00;;
36191;SDS011;22233;42.708;23.360;2023-09-07T04:28:01;14.63;;;13.13;;
36191;SDS011;22233;42.708;23.360;2023-09-07T04:30:27;22.42;;;13.38;;
36191;SDS011;22233;42.708;23.360;2023-09-07T04:32:52;15.43;;;13.48;;
36191;SDS011;22233;42.708;23.360;2023-09-07T04:35:18;15.55;;;13.95;;
36191;SDS011;22233;42.708;23.360;2023-09-07T04:37:43;15.07;;;13.48;;
36191;SDS011;22233;42.708;23.360;2023-09-07T04:40:09;16.85;;;14.45;;
36191;SDS011;22233;42.708;23.360;2023-09-07T04:42:35;14.30;;;12.95;;
36191;SDS011;22233;42.708;23.360;2023-09-07T04:45:01;14.98;;;13.57;;
36191;SDS011;22233;42.708;23.360;2023-09-07T04:47:26;15.88;;;13.95;;
36191;SDS011;22233;42.708;23.360;2023-09-07T04:49:52;15.95;;;14.32;;
36191;SDS011;22233;42.708;23.360;2023-09-07T04:52:17;16.17;;;14.60;;
36191;SDS011;22233;42.708;23.360;2023-09-07T04:54:43;17.08;;;15.18;;
36191;SDS011;22233;42.708;23.360;2023-09-07T04:57:09;17.05;;;15.27;;
36191;SDS011;22233;42.708;23.360;2023-09-07T04:59:34;17.60;;;14.95;;
36191;SDS011;22233;42.708;23.360;2023-09-07T05:02:00;17.25;;;14.32;;
36191;SDS011;22233;42.708;23.360;2023-09-07T05:04:26;15.70;;;14.03;;
36191;SDS011;22233;42.708;23.360;2023-09-07T05:06:52;17.02;;;14.38;;
36191;SDS011;22233;42.708;23.360;2023-09-07T05:09:17;17.15;;;13.65;;
36191;SDS011;22233;42.708;23.360;2023-09-07T05:11:43;16.00;;;14.40;;
36191;SDS011;22233;42.708;23.360;2023-09-07T05:14:08;15.88;;;13.98;;
36191;SDS011;22233;42.708;23.360;2023-09-07T05:16:33;16.75;;;13.57;;
36191;SDS011;22233;42.708;23.360;2023-09-07T05:18:59;16.88;;;15.20;;
36191;SDS011;22233;42.708;23.360;2023-09-07T05:21:24;20.40;;;15.23;;
36191;SDS011;22233;42.708;23.360;2023-09-07T05:23:50;17.58;;;14.43;;
36191;SDS011;22233;42.708;23.360;2023-09-07T05:26:20;16.95;;;14.02;;
36191;SDS011;22233;42.708;23.360;2023-09-07T05:28:46;16.25;;;14.63;;
36191;SDS011;22233;42.708;23.360;2023-09-07T05:31:11;17.73;;;15.98;;
36191;SDS011;22233;42.708;23.360;2023-09-07T05:33:36;15.48;;;13.80;;
36191;SDS011;22233;42.708;23.360;2023-09-07T05:36:02;21.08;;;14.52;;
36191;SDS011;22233;42.708;23.360;2023-09-07T05:38:27;15.95;;;14.38;;
36191;SDS011;22233;42.708;23.360;2023-09-07T05:40:53;16.25;;;14.25;;
36191;SDS011;22233;42.708;23.360;2023-09-07T05:43:19;17.80;;;14.38;;
36191;SDS011;22233;42.708;23.360;2023-09-07T05:45:45;18.05;;;15.07;;
36191;SDS011;22233;42.708;23.360;2023-09-07T05:48:10;18.55;;;15.55;;
36191;SDS011;22233;42.708;23.360;2023-09-07T05:50:36;18.10;;;16.15;;
36191;SDS011;22233;42.708;23.360;2023-09-07T05:53:03;17.70;;;15.48;;
36191;SDS011;22233;42.708;23.360;2023-09-07T05:55:29;19.30;;;15.55;;
36191;SDS011;22233;42.708;23.360;2023-09-07T05:57:55;16.55;;;14.75;;
36191;SDS011;22233;42.708;23.360;2023-09-07T06:00:21;18.75;;;15.02;;
36191;SDS011;22233;42.708;23.360;2023-09-07T06:02:48;18.98;;;15.10;;
36191;SDS011;22233;42.708;23.360;2023-09-07T06:05:14;19.08;;;15.20;;
36191;SDS011;22233;42.708;23.360;2023-09-07T06:07:39;15.52;;;13.70;;
36191;SDS011;22233;42.708;23.360;2023-09-07T06:10:05;17.85;;;15.38;;
36191;SDS011;22233;42.708;23.360;2023-09-07T06:12:31;19.25;;;15.40;;
36191;SDS011;22233;42.708;23.360;2023-09-07T06:14:57;16.90;;;13.50;;
36191;SDS011;22233;42.708;23.360;2023-09-07T06:17:22;18.20;;;13.18;;
36191;SDS011;22233;42.708;23.360;2023-09-07T06:19:48;14.45;;;12.40;;
36191;SDS011;22233;42.708;23.360;2023-09-07T06:22:13;14.80;;;12.52;;
36191;SDS011;22233;42.708;23.360;2023-09-07T06:24:38;15.60;;;14.00;;
36191;SDS011;22233;42.708;23.360;2023-09-07T06:27:04;14.95;;;12.63;;
36191;SDS011;22233;42.708;23.360;2023-09-07T06:29:29;15.70;;;12.82;;
36191;SDS011;22233;42.708;23.360;2023-09-07T06:31:55;14.77;;;13.18;;
36191;SDS011;22233;42.708;23.360;2023-09-07T06:34:20;12.15;;;10.95;;
36191;SDS011;22233;42.708;23.360;2023-09-07T06:36:45;14.50;;;10.38;;
36191;SDS011;22233;42.708;23.360;2023-09-07T06:39:11;12.52;;;9.50;;
36191;SDS011;22233;42.708;23.360;2023-09-07T06:41:36;11.75;;;10.52;;
36191;SDS011;22233;42.708;23.360;2023-09-07T06:44:02;16.05;;;12.30;;
36191;SDS011;22233;42.708;23.360;2023-09-07T06:46:27;11.98;;;10.00;;
36191;SDS011;22233;42.708;23.360;2023-09-07T06:48:52;12.93;;;9.82;;
36191;SDS011;22233;42.708;23.360;2023-09-07T06:51:18;13.80;;;10.00;;
36191;SDS011;22233;42.708;23.360;2023-09-07T06:53:43;11.25;;;9.98;;
36191;SDS011;22233;42.708;23.360;2023-09-07T06:56:09;11.50;;;9.95;;
36191;SDS011;22233;42.708;23.360;2023-09-07T06:58:35;10.30;;;8.50;;
36191;SDS011;22233;42.708;23.360;2023-09-07T07:01:00;13.30;;;9.20;;
36191;SDS011;22233;42.708;23.360;2023-09-07T07:03:28;10.30;;;9.10;;
36191;SDS011;22233;42.708;23.360;2023-09-07T07:08:20;10.95;;;8.68;;
36191;SDS011;22233;42.708;23.360;2023-09-07T07:10:45;10.88;;;8.35;;
36191;SDS011;22233;42.708;23.360;2023-09-07T07:13:11;10.45;;;9.00;;
36191;SDS011;22233;42.708;23.360;2023-09-07T07:15:36;10.63;;;7.93;;
36191;SDS011;22233;42.708;23.360;2023-09-07T07:18:02;12.48;;;8.70;;
36191;SDS011;22233;42.708;23.360;2023-09-07T07:20:33;9.52;;;8.35;;
36191;SDS011;22233;42.708;23.360;2023-09-07T07:23:02;11.77;;;9.70;;
36191;SDS011;22233;42.708;23.360;2023-09-07T07:25:28;12.45;;;7.85;;
36191;SDS011;22233;42.708;23.360;2023-09-07T07:27:53;10.27;;;7.75;;
36191;SDS011;22233;42.708;23.360;2023-09-07T07:30:19;9.23;;;7.60;;
36191;SDS011;22233;42.708;23.360;2023-09-07T07:32:44;9.80;;;6.97;;
36191;SDS011;22233;42.708;23.360;2023-09-07T07:35:10;8.43;;;7.15;;
36191;SDS011;22233;42.708;23.360;2023-09-07T07:37:35;9.52;;;7.35;;
36191;SDS011;22233;42.708;23.360;2023-09-07T07:40:00;9.48;;;7.47;;
36191;SDS011;22233;42.708;23.360;2023-09-07T07:42:26;10.27;;;7.25;;
36191;SDS011;22233;42.708;23.360;2023-09-07T07:44:51;8.65;;;6.95;;
36191;SDS011;22233;42.708;23.360;2023-09-07T07:47:16;7.20;;;6.57;;
36191;SDS011;22233;42.708;23.360;2023-09-07T07:49:42;8.70;;;7.78;;
36191;SDS011;22233;42.708;23.360;2023-09-07T07:52:07;10.10;;;7.10;;
36191;SDS011;22233;42.708;23.360;2023-09-07T07:54:33;10.38;;;6.80;;
36191;SDS011;22233;42.708;23.360;2023-09-07T07:57:00;12.13;;;7.20;;
36191;SDS011;22233;42.708;23.360;2023-09-07T07:59:26;10.23;;;7.22;;
36191;SDS011;22233;42.708;23.360;2023-09-07T08:01:51;7.43;;;6.68;;
36191;SDS011;22233;42.708;23.360;2023-09-07T08:04:16;8.57;;;7.72;;
36191;SDS011;22233;42.708;23.360;2023-09-07T08:06:42;9.75;;;7.18;;
36191;SDS011;22233;42.708;23.360;2023-09-07T08:09:07;7.85;;;6.68;;
36191;SDS011;22233;42.708;23.360;2023-09-07T08:11:33;6.78;;;5.22;;
36191;SDS011;22233;42.708;23.360;2023-09-07T08:13:58;13.13;;;5.95;;
36191;SDS011;22233;42.708;23.360;2023-09-07T08:16:24;7.15;;;4.75;;
36191;SDS011;22233;42.708;23.360;2023-09-07T08:18:49;8.23;;;5.20;;
36191;SDS011;22233;42.708;23.360;2023-09-07T08:21:15;6.13;;;4.63;;
36191;SDS011;22233;42.708;23.360;2023-09-07T08:23:41;5.90;;;4.90;;
36191;SDS011;22233;42.708;23.360;2023-09-07T08:26:06;7.25;;;5.05;;
36191;SDS011;22233;42.708;23.360;2023-09-07T08:28:34;9.13;;;5.05;;
36191;SDS011;22233;42.708;23.360;2023-09-07T08:30:59;6.05;;;5.18;;
36191;SDS011;22233;42.708;23.360;2023-09-07T08:33:26;6.77;;;5.27;;
36191;SDS011;22233;42.708;23.360;2023-09-07T08:35:55;5.93;;;5.28;;
36191;SDS011;22233;42.708;23.360;2023-09-07T08:38:21;7.28;;;5.18;;
36191;SDS011;22233;42.708;23.360;2023-09-07T08:40:51;6.90;;;5.10;;
36191;SDS011;22233;42.708;23.360;2023-09-07T08:46:26;9.88;;;4.85;;
36191;SDS011;22233;42.708;23.360;2023-09-07T08:48:40;8.80;;;5.10;;
36191;SDS011;22233;42.708;23.360;2023-09-07T08:51:07;8.80;;;4.88;;
36191;SDS011;22233;42.708;23.360;2023-09-07T08:53:37;7.70;;;5.80;;
36191;SDS011;22233;42.708;23.360;2023-09-07T08:56:03;7.57;;;4.72;;
36191;SDS011;22233;42.708;23.360;2023-09-07T08:58:29;6.47;;;4.60;;
36191;SDS011;22233;42.708;23.360;2023-09-07T09:00:56;6.13;;;4.95;;
36191;SDS011;22233;42.708;23.360;2023-09-07T09:03:22;5.00;;;4.50;;
36191;SDS011;22233;42.708;23.360;2023-09-07T09:05:48;5.45;;;4.95;;
36191;SDS011;22233;42.708;23.360;2023-09-07T09:08:15;6.43;;;4.63;;
36191;SDS011;22233;42.708;23.360;2023-09-07T09:10:45;6.25;;;4.60;;
36191;SDS011;22233;42.708;23.360;2023-09-07T09:13:11;5.22;;;4.25;;
36191;SDS011;22233;42.708;23.360;2023-09-07T09:15:37;7.10;;;4.63;;
36191;SDS011;22233;42.708;23.360;2023-09-07T09:18:09;7.68;;;5.32;;
36191;SDS011;22233;42.708;23.360;2023-09-07T09:20:37;8.60;;;4.47;;
36191;SDS011;22233;42.708;23.360;2023-09-07T09:23:03;5.75;;;5.00;;
36191;SDS011;22233;42.708;23.360;2023-09-07T09:25:30;6.57;;;4.18;;
36191;SDS011;22233;42.708;23.360;2023-09-07T09:30:22;5.35;;;4.38;;
36191;SDS011;22233;42.708;23.360;2023-09-07T09:32:47;5.45;;;4.47;;
36191;SDS011;22233;42.708;23.360;2023-09-07T09:35:15;6.60;;;4.82;;
36191;SDS011;22233;42.708;23.360;2023-09-07T09:37:46;9.30;;;5.10;;
36191;SDS011;22233;42.708;23.360;2023-09-07T09:40:13;8.05;;;4.35;;
36191;SDS011;22233;42.708;23.360;2023-09-07T09:42:41;6.15;;;4.63;;
36191;SDS011;22233;42.708;23.360;2023-09-07T09:45:07;4.78;;;4.38;;
36191;SDS011;22233;42.708;23.360;2023-09-07T09:47:33;5.25;;;4.07;;
36191;SDS011;22233;42.708;23.360;2023-09-07T09:50:06;5.28;;;4.78;;
36191;SDS011;22233;42.708;23.360;2023-09-07T09:52:34;5.10;;;4.60;;
36191;SDS011;22233;42.708;23.360;2023-09-07T09:55:01;5.63;;;4.80;;
36191;SDS011;22233;42.708;23.360;2023-09-07T09:57:30;6.53;;;4.63;;
36191;SDS011;22233;42.708;23.360;2023-09-07T09:59:57;5.95;;;4.82;;
36191;SDS011;22233;42.708;23.360;2023-09-07T10:02:24;5.43;;;4.72;;
36191;SDS011;22233;42.708;23.360;2023-09-07T10:04:51;6.07;;;4.25;;
36191;SDS011;22233;42.708;23.360;2023-09-07T10:07:18;5.20;;;4.70;;
36191;SDS011;22233;42.708;23.360;2023-09-07T10:09:44;7.22;;;4.40;;
36191;SDS011;22233;42.708;23.360;2023-09-07T10:12:12;6.97;;;4.90;;
36191;SDS011;22233;42.708;23.360;2023-09-07T10:14:39;5.65;;;4.28;;
36191;SDS011;22233;42.708;23.360;2023-09-07T10:17:05;5.60;;;4.88;;
36191;SDS011;22233;42.708;23.360;2023-09-07T10:19:31;7.20;;;4.68;;
36191;SDS011;22233;42.708;23.360;2023-09-07T10:21:56;7.82;;;4.65;;
36191;SDS011;22233;42.708;23.360;2023-09-07T10:24:32;4.53;;;4.13;;
36191;SDS011;22233;42.708;23.360;2023-09-07T10:27:01;4.82;;;4.30;;
36191;SDS011;22233;42.708;23.360;2023-09-07T10:29:40;9.32;;;4.97;;
36191;SDS011;22233;42.708;23.360;2023-09-07T10:32:10;4.63;;;4.22;;
36191;SDS011;22233;42.708;23.360;2023-09-07T10:34:39;5.97;;;4.57;;
36191;SDS011;22233;42.708;23.360;2023-09-07T10:37:09;5.82;;;4.63;;
36191;SDS011;22233;42.708;23.360;2023-09-07T10:39:37;5.22;;;4.72;;
36191;SDS011;22233;42.708;23.360;2023-09-07T10:42:08;4.57;;;4.07;;
36191;SDS011;22233;42.708;23.360;2023-09-07T10:44:34;5.75;;;4.55;;
36191;SDS011;22233;42.708;23.360;2023-09-07T10:46:59;6.78;;;4.82;;
36191;SDS011;22233;42.708;23.360;2023-09-07T10:49:25;6.30;;;4.55;;
36191;SDS011;22233;42.708;23.360;2023-09-07T10:51:51;6.93;;;4.65;;
36191;SDS011;22233;42.708;23.360;2023-09-07T10:54:17;6.40;;;4.03;;
36191;SDS011;22233;42.708;23.360;2023-09-07T10:56:44;3.60;;;3.30;;
36191;SDS011;22233;42.708;23.360;2023-09-07T10:59:11;4.90;;;3.65;;
36191;SDS011;22233;42.708;23.360;2023-09-07T11:01:37;4.18;;;3.78;;
36191;SDS011;22233;42.708;23.360;2023-09-07T11:04:03;5.63;;;3.75;;
36191;SDS011;22233;42.708;23.360;2023-09-07T11:06:30;4.22;;;3.78;;
36191;SDS011;22233;42.708;23.360;2023-09-07T11:08:58;5.68;;;4.20;;
36191;SDS011;22233;42.708;23.360;2023-09-07T11:11:24;5.65;;;4.00;;
36191;SDS011;22233;42.708;23.360;2023-09-07T11:13:51;5.28;;;3.80;;
36191;SDS011;22233;42.708;23.360;2023-09-07T11:16:16;7.32;;;3.83;;
36191;SDS011;22233;42.708;23.360;2023-09-07T11:18:42;5.35;;;3.90;;
36191;SDS011;22233;42.708;23.360;2023-09-07T11:21:07;5.40;;;3.70;;
36191;SDS011;22233;42.708;23.360;2023-09-07T11:23:33;4.95;;;4.35;;
36191;SDS011;22233;42.708;23.360;2023-09-07T11:26:05;4.75;;;3.88;;
36191;SDS011;22233;42.708;23.360;2023-09-07T11:28:31;3.72;;;3.42;;
36191;SDS011;22233;42.708;23.360;2023-09-07T11:30:57;6.03;;;4.03;;
36191;SDS011;22233;42.708;23.360;2023-09-07T11:33:24;4.95;;;4.07;;
36191;SDS011;22233;42.708;23.360;2023-09-07T11:35:50;6.32;;;3.92;;
36191;SDS011;22233;42.708;23.360;2023-09-07T11:38:16;4.13;;;3.23;;
36191;SDS011;22233;42.708;23.360;2023-09-07T11:40:42;6.18;;;3.70;;
36191;SDS011;22233;42.708;23.360;2023-09-07T11:43:12;6.43;;;3.92;;
36191;SDS011;22233;42.708;23.360;2023-09-07T11:45:42;6.93;;;3.65;;
36191;SDS011;22233;42.708;23.360;2023-09-07T11:48:08;6.28;;;3.63;;
36191;SDS011;22233;42.708;23.360;2023-09-07T11:50:35;5.57;;;3.47;;
36191;SDS011;22233;42.708;23.360;2023-09-07T11:53:01;7.93;;;4.63;;
36191;SDS011;22233;42.708;23.360;2023-09-07T11:55:27;4.78;;;3.30;;
36191;SDS011;22233;42.708;23.360;2023-09-07T11:57:53;7.70;;;3.20;;
36191;SDS011;22233;42.708;23.360;2023-09-07T12:00:19;4.57;;;3.63;;
36191;SDS011;22233;42.708;23.360;2023-09-07T12:02:44;4.13;;;3.53;;
36191;SDS011;22233;42.708;23.360;2023-09-07T12:05:09;12.73;;;4.80;;
36191;SDS011;22233;42.708;23.360;2023-09-07T12:07:39;5.35;;;3.30;;
36191;SDS011;22233;42.708;23.360;2023-09-07T12:10:04;6.15;;;3.67;;
36191;SDS011;22233;42.708;23.360;2023-09-07T12:12:30;6.35;;;3.40;;
36191;SDS011;22233;42.708;23.360;2023-09-07T12:14:56;6.97;;;3.50;;
36191;SDS011;22233;42.708;23.360;2023-09-07T12:17:24;4.80;;;3.38;;
36191;SDS011;22233;42.708;23.360;2023-09-07T12:19:50;6.05;;;3.38;;
36191;SDS011;22233;42.708;23.360;2023-09-07T12:22:15;6.07;;;3.10;;
36191;SDS011;22233;42.708;23.360;2023-09-07T12:24:41;4.18;;;3.78;;
36191;SDS011;22233;42.708;23.360;2023-09-07T12:27:06;3.80;;;3.42;;
36191;SDS011;22233;42.708;23.360;2023-09-07T12:29:32;5.15;;;3.33;;
36191;SDS011;22233;42.708;23.360;2023-09-07T12:31:57;6.78;;;3.67;;
36191;SDS011;22233;42.708;23.360;2023-09-07T12:34:23;7.30;;;3.30;;
36191;SDS011;22233;42.708;23.360;2023-09-07T12:36:49;3.50;;;3.13;;
36191;SDS011;22233;42.708;23.360;2023-09-07T12:39:14;4.72;;;3.38;;
36191;SDS011;22233;42.708;23.360;2023-09-07T12:41:40;4.40;;;3.35;;
36191;SDS011;22233;42.708;23.360;2023-09-07T12:44:06;4.30;;;3.50;;
36191;SDS011;22233;42.708;23.360;2023-09-07T12:46:32;6.88;;;3.40;;
36191;SDS011;22233;42.708;23.360;2023-09-07T12:48:57;3.67;;;3.30;;
36191;SDS011;22233;42.708;23.360;2023-09-07T12:51:23;4.28;;;3.15;;
36191;SDS011;22233;42.708;23.360;2023-09-07T12:53:48;3.55;;;3.25;;
36191;SDS011;22233;42.708;23.360;2023-09-07T12:56:13;4.45;;;3.15;;
36191;SDS011;22233;42.708;23.360;2023-09-07T12:58:40;4.57;;;3.33;;
36191;SDS011;22233;42.708;23.360;2023-09-07T13:01:06;8.55;;;3.85;;
36191;SDS011;22233;42.708;23.360;2023-09-07T13:03:34;4.45;;;3.40;;
36191;SDS011;22233;42.708;23.360;2023-09-07T13:06:00;5.70;;;3.33;;
36191;SDS011;22233;42.708;23.360;2023-09-07T13:08:26;4.85;;;3.75;;
36191;SDS011;22233;42.708;23.360;2023-09-07T13:10:53;4.93;;;3.78;;
36191;SDS011;22233;42.708;23.360;2023-09-07T13:13:18;5.20;;;3.58;;
36191;SDS011;22233;42.708;23.360;2023-09-07T13:15:43;4.18;;;3.72;;
36191;SDS011;22233;42.708;23.360;2023-09-07T13:18:09;8.60;;;3.92;;
36191;SDS011;22233;42.708;23.360;2023-09-07T13:20:34;6.15;;;3.40;;
36191;SDS011;22233;42.708;23.360;2023-09-07T13:23:00;4.32;;;3.65;;
36191;SDS011;22233;42.708;23.360;2023-09-07T13:25:25;4.32;;;3.40;;
36191;SDS011;22233;42.708;23.360;2023-09-07T13:27:51;4.93;;;3.10;;
36191;SDS011;22233;42.708;23.360;2023-09-07T13:30:16;3.83;;;3.42;;
36191;SDS011;22233;42.708;23.360;2023-09-07T13:32:42;6.88;;;3.60;;
36191;SDS011;22233;42.708;23.360;2023-09-07T13:35:07;4.18;;;3.35;;
36191;SDS011;22233;42.708;23.360;2023-09-07T13:37:33;3.85;;;3.25;;
36191;SDS011;22233;42.708;23.360;2023-09-07T13:40:00;5.55;;;3.60;;
36191;SDS011;22233;42.708;23.360;2023-09-07T13:42:26;7.35;;;3.15;;
36191;SDS011;22233;42.708;23.360;2023-09-07T13:44:52;3.90;;;3.47;;
36191;SDS011;22233;42.708;23.360;2023-09-07T13:47:17;4.68;;;3.70;;
36191;SDS011;22233;42.708;23.360;2023-09-07T13:49:43;4.97;;;3.63;;
36191;SDS011;22233;42.708;23.360;2023-09-07T13:52:08;4.65;;;3.90;;
36191;SDS011;22233;42.708;23.360;2023-09-07T13:54:33;4.43;;;3.58;;
36191;SDS011;22233;42.708;23.360;2023-09-07T13:56:59;5.88;;;4.20;;
36191;SDS011;22233;42.708;23.360;2023-09-07T13:59:24;7.30;;;4.30;;
36191;SDS011;22233;42.708;23.360;2023-09-07T14:01:53;7.63;;;3.92;;
36191;SDS011;22233;42.708;23.360;2023-09-07T14:04:19;7.28;;;3.47;;
36191;SDS011;22233;42.708;23.360;2023-09-07T14:06:44;5.63;;;4.00;;
36191;SDS011;22233;42.708;23.360;2023-09-07T14:09:10;4.13;;;3.65;;
36191;SDS011;22233;42.708;23.360;2023-09-07T14:11:35;5.78;;;3.85;;
36191;SDS011;22233;42.708;23.360;2023-09-07T14:14:00;5.60;;;3.80;;
36191;SDS011;22233;42.708;23.360;2023-09-07T14:16:26;6.88;;;4.07;;
36191;SDS011;22233;42.708;23.360;2023-09-07T14:18:51;5.63;;;3.58;;
36191;SDS011;22233;42.708;23.360;2023-09-07T14:21:17;4.35;;;3.95;;
36191;SDS011;22233;42.708;23.360;2023-09-07T14:23:43;6.35;;;4.03;;
36191;SDS011;22233;42.708;23.360;2023-09-07T14:26:08;5.72;;;4.10;;
36191;SDS011;22233;42.708;23.360;2023-09-07T14:28:34;5.10;;;3.88;;